sensor_id;sensor_type;location;lat;lon;timestamp;temperature;humidity
79301;SHT31;68755;51.984;5.646;2024-03-29T00:02:08;10.5;59.5
79301;SHT31;68755;51.984;5.646;2024-03-29T00:04:39;10.5;59.8
79301;SHT31;68755;51.984;5.646;2024-03-29T00:07:08;10.4;59.8
79301;SHT31;68755;51.984;5.646;2024-03-29T00:09:38;10.4;59.8
79301;SHT31;68755;51.984;5.646;2024-03-29T00:12:08;10.4;59.8
79301;SHT31;68755;51.984;5.646;2024-03-29T00:14:40;10.4;59.7
79301;SHT31;68755;51.984;5.646;2024-03-29T00:17:12;10.4;59.8
79301;SHT31;68755;51.984;5.646;2024-03-29T00:19:42;10.4;59.9
79301;SHT31;68755;51.984;5.646;2024-03-29T00:22:12;10.4;60.2
79301;SHT31;68755;51.984;5.646;2024-03-29T00:24:43;10.4;60.1
79301;SHT31;68755;51.984;5.646;2024-03-29T00:27:12;10.3;60.3
79301;SHT31;68755;51.984;5.646;2024-03-29T00:29:42;10.3;60.2
79301;SHT31;68755;51.984;5.646;2024-03-29T00:32:14;10.3;60.5
79301;SHT31;68755;51.984;5.646;2024-03-29T00:34:44;10.3;60.2
79301;SHT31;68755;51.984;5.646;2024-03-29T00:37:15;10.3;60.2
79301;SHT31;68755;51.984;5.646;2024-03-29T00:39:45;10.3;60.5
79301;SHT31;68755;51.984;5.646;2024-03-29T00:42:14;10.3;60.4
79301;SHT31;68755;51.984;5.646;2024-03-29T00:44:44;10.3;60.5
79301;SHT31;68755;51.984;5.646;2024-03-29T00:47:13;10.3;60.5
79301;SHT31;68755;51.984;5.646;2024-03-29T00:49:43;10.3;60.3
79301;SHT31;68755;51.984;5.646;2024-03-29T00:52:12;10.3;60.1
79301;SHT31;68755;51.984;5.646;2024-03-29T00:54:42;10.3;60.4
79301;SHT31;68755;51.984;5.646;2024-03-29T00:57:11;10.3;60.2
79301;SHT31;68755;51.984;5.646;2024-03-29T00:59:43;10.3;60.3
79301;SHT31;68755;51.984;5.646;2024-03-29T01:02:14;10.3;60.1
79301;SHT31;68755;51.984;5.646;2024-03-29T01:04:44;10.3;60.2
79301;SHT31;68755;51.984;5.646;2024-03-29T01:07:13;10.3;60.1
79301;SHT31;68755;51.984;5.646;2024-03-29T01:09:48;10.3;60.2
79301;SHT31;68755;51.984;5.646;2024-03-29T01:12:18;10.3;60.0
79301;SHT31;68755;51.984;5.646;2024-03-29T01:14:48;10.3;60.1
79301;SHT31;68755;51.984;5.646;2024-03-29T01:17:20;10.3;59.9
79301;SHT31;68755;51.984;5.646;2024-03-29T01:19:49;10.3;59.8
79301;SHT31;68755;51.984;5.646;2024-03-29T01:22:19;10.3;59.9
79301;SHT31;68755;51.984;5.646;2024-03-29T01:24:48;10.3;60.0
79301;SHT31;68755;51.984;5.646;2024-03-29T01:27:19;10.3;59.9
79301;SHT31;68755;51.984;5.646;2024-03-29T01:29:48;10.2;59.8
79301;SHT31;68755;51.984;5.646;2024-03-29T01:32:18;10.2;60.0
79301;SHT31;68755;51.984;5.646;2024-03-29T01:34:47;10.2;59.9
79301;SHT31;68755;51.984;5.646;2024-03-29T01:37:17;10.2;60.2
79301;SHT31;68755;51.984;5.646;2024-03-29T01:39:47;10.2;60.0
79301;SHT31;68755;51.984;5.646;2024-03-29T01:42:17;10.2;59.9
79301;SHT31;68755;51.984;5.646;2024-03-29T01:44:46;10.2;60.1
79301;SHT31;68755;51.984;5.646;2024-03-29T01:47:17;10.2;60.3
79301;SHT31;68755;51.984;5.646;2024-03-29T01:49:47;10.2;60.1
79301;SHT31;68755;51.984;5.646;2024-03-29T01:52:20;10.2;60.2
79301;SHT31;68755;51.984;5.646;2024-03-29T01:54:50;10.2;60.2
79301;SHT31;68755;51.984;5.646;2024-03-29T01:57:21;10.2;60.0
79301;SHT31;68755;51.984;5.646;2024-03-29T01:59:52;10.1;60.2
79301;SHT31;68755;51.984;5.646;2024-03-29T02:02:22;10.1;60.0
79301;SHT31;68755;51.984;5.646;2024-03-29T02:04:53;10.1;60.0
79301;SHT31;68755;51.984;5.646;2024-03-29T02:07:26;10.1;60.3
79301;SHT31;68755;51.984;5.646;2024-03-29T02:09:56;10.1;60.4
79301;SHT31;68755;51.984;5.646;2024-03-29T02:12:26;10.1;60.5
79301;SHT31;68755;51.984;5.646;2024-03-29T02:14:56;10.1;60.4
79301;SHT31;68755;51.984;5.646;2024-03-29T02:17:26;10.1;60.5
79301;SHT31;68755;51.984;5.646;2024-03-29T02:19:56;10.0;60.6
79301;SHT31;68755;51.984;5.646;2024-03-29T02:22:27;10.0;60.7
79301;SHT31;68755;51.984;5.646;2024-03-29T02:24:59;10.0;60.8
79301;SHT31;68755;51.984;5.646;2024-03-29T02:27:31;10.0;61.2
79301;SHT31;68755;51.984;5.646;2024-03-29T02:30:00;10.0;61.4
79301;SHT31;68755;51.984;5.646;2024-03-29T02:32:30;10.0;61.2
79301;SHT31;68755;51.984;5.646;2024-03-29T02:35:00;10.0;61.1
79301;SHT31;68755;51.984;5.646;2024-03-29T02:37:29;10.0;61.2
79301;SHT31;68755;51.984;5.646;2024-03-29T02:39:59;10.0;61.0
79301;SHT31;68755;51.984;5.646;2024-03-29T02:42:28;10.0;61.1
79301;SHT31;68755;51.984;5.646;2024-03-29T02:44:59;10.0;61.2
79301;SHT31;68755;51.984;5.646;2024-03-29T02:47:28;10.0;61.1
79301;SHT31;68755;51.984;5.646;2024-03-29T02:49:58;10.0;61.0
79301;SHT31;68755;51.984;5.646;2024-03-29T02:52:28;10.0;61.2
79301;SHT31;68755;51.984;5.646;2024-03-29T02:54:58;10.0;61.3
79301;SHT31;68755;51.984;5.646;2024-03-29T02:57:27;10.0;61.0
79301;SHT31;68755;51.984;5.646;2024-03-29T02:59:57;10.0;61.0
79301;SHT31;68755;51.984;5.646;2024-03-29T03:02:26;10.0;61.0
79301;SHT31;68755;51.984;5.646;2024-03-29T03:04:56;10.0;61.0
79301;SHT31;68755;51.984;5.646;2024-03-29T03:07:34;10.1;61.2
79301;SHT31;68755;51.984;5.646;2024-03-29T03:10:20;10.1;60.8
79301;SHT31;68755;51.984;5.646;2024-03-29T03:13:06;10.1;60.9
79301;SHT31;68755;51.984;5.646;2024-03-29T03:15:37;10.1;61.2
79301;SHT31;68755;51.984;5.646;2024-03-29T03:18:07;10.1;60.9
79301;SHT31;68755;51.984;5.646;2024-03-29T03:20:37;10.1;61.3
79301;SHT31;68755;51.984;5.646;2024-03-29T03:23:09;10.1;61.1
79301;SHT31;68755;51.984;5.646;2024-03-29T03:25:38;10.1;61.2
79301;SHT31;68755;51.984;5.646;2024-03-29T03:28:08;10.1;61.2
79301;SHT31;68755;51.984;5.646;2024-03-29T03:30:41;10.2;61.0
79301;SHT31;68755;51.984;5.646;2024-03-29T03:33:15;10.2;61.4
79301;SHT31;68755;51.984;5.646;2024-03-29T03:35:45;10.2;61.2
79301;SHT31;68755;51.984;5.646;2024-03-29T03:38:16;10.2;61.3
79301;SHT31;68755;51.984;5.646;2024-03-29T03:40:47;10.2;61.3
79301;SHT31;68755;51.984;5.646;2024-03-29T03:43:17;10.2;61.0
79301;SHT31;68755;51.984;5.646;2024-03-29T03:45:46;10.2;61.4
79301;SHT31;68755;51.984;5.646;2024-03-29T03:48:16;10.3;61.2
79301;SHT31;68755;51.984;5.646;2024-03-29T03:50:45;10.3;61.3
79301;SHT31;68755;51.984;5.646;2024-03-29T03:53:15;10.3;61.2
79301;SHT31;68755;51.984;5.646;2024-03-29T03:55:45;10.3;61.4
79301;SHT31;68755;51.984;5.646;2024-03-29T03:58:15;10.3;61.3
79301;SHT31;68755;51.984;5.646;2024-03-29T04:00:45;10.3;61.5
79301;SHT31;68755;51.984;5.646;2024-03-29T04:03:16;10.3;61.4
79301;SHT31;68755;51.984;5.646;2024-03-29T04:05:45;10.4;61.2
79301;SHT31;68755;51.984;5.646;2024-03-29T04:08:15;10.4;61.5
79301;SHT31;68755;51.984;5.646;2024-03-29T04:10:46;10.4;61.6
79301;SHT31;68755;51.984;5.646;2024-03-29T04:13:17;10.4;62.0
79301;SHT31;68755;51.984;5.646;2024-03-29T04:15:47;10.4;62.1
79301;SHT31;68755;51.984;5.646;2024-03-29T04:18:16;10.4;62.4
79301;SHT31;68755;51.984;5.646;2024-03-29T04:20:46;10.4;62.8
79301;SHT31;68755;51.984;5.646;2024-03-29T04:23:18;10.4;63.5
79301;SHT31;68755;51.984;5.646;2024-03-29T04:25:52;10.5;64.8
79301;SHT31;68755;51.984;5.646;2024-03-29T04:28:22;10.5;64.9
79301;SHT31;68755;51.984;5.646;2024-03-29T04:30:53;10.5;65.5
79301;SHT31;68755;51.984;5.646;2024-03-29T04:33:24;10.5;64.9
79301;SHT31;68755;51.984;5.646;2024-03-29T04:35:55;10.5;65.1
79301;SHT31;68755;51.984;5.646;2024-03-29T04:38:28;10.5;65.5
79301;SHT31;68755;51.984;5.646;2024-03-29T04:40:59;10.5;65.7
79301;SHT31;68755;51.984;5.646;2024-03-29T04:43:29;10.5;66.1
79301;SHT31;68755;51.984;5.646;2024-03-29T04:46:08;10.5;66.2
79301;SHT31;68755;51.984;5.646;2024-03-29T04:48:40;10.4;66.9
79301;SHT31;68755;51.984;5.646;2024-03-29T04:51:13;10.4;68.1
79301;SHT31;68755;51.984;5.646;2024-03-29T04:53:44;10.4;68.2
79301;SHT31;68755;51.984;5.646;2024-03-29T04:56:14;10.4;68.5
79301;SHT31;68755;51.984;5.646;2024-03-29T04:58:44;10.4;68.8
79301;SHT31;68755;51.984;5.646;2024-03-29T05:01:17;10.4;68.9
79301;SHT31;68755;51.984;5.646;2024-03-29T05:03:47;10.4;69.2
79301;SHT31;68755;51.984;5.646;2024-03-29T05:06:18;10.4;69.5
79301;SHT31;68755;51.984;5.646;2024-03-29T05:08:48;10.4;69.7
79301;SHT31;68755;51.984;5.646;2024-03-29T05:11:18;10.4;70.2
79301;SHT31;68755;51.984;5.646;2024-03-29T05:13:47;10.4;70.1
79301;SHT31;68755;51.984;5.646;2024-03-29T05:16:17;10.4;70.6
79301;SHT31;68755;51.984;5.646;2024-03-29T05:18:49;10.4;70.6
79301;SHT31;68755;51.984;5.646;2024-03-29T05:21:21;10.4;70.9
79301;SHT31;68755;51.984;5.646;2024-03-29T05:23:51;10.4;71.2
79301;SHT31;68755;51.984;5.646;2024-03-29T05:26:21;10.4;71.2
79301;SHT31;68755;51.984;5.646;2024-03-29T05:28:51;10.3;71.7
79301;SHT31;68755;51.984;5.646;2024-03-29T05:31:25;10.3;71.5
79301;SHT31;68755;51.984;5.646;2024-03-29T05:33:55;10.3;71.6
79301;SHT31;68755;51.984;5.646;2024-03-29T05:36:24;10.3;72.1
79301;SHT31;68755;51.984;5.646;2024-03-29T05:38:54;10.3;72.3
79301;SHT31;68755;51.984;5.646;2024-03-29T05:41:23;10.3;72.3
79301;SHT31;68755;51.984;5.646;2024-03-29T05:43:53;10.3;72.4
79301;SHT31;68755;51.984;5.646;2024-03-29T05:46:22;10.3;72.7
79301;SHT31;68755;51.984;5.646;2024-03-29T05:48:52;10.3;72.9
79301;SHT31;68755;51.984;5.646;2024-03-29T05:51:22;10.3;72.9
79301;SHT31;68755;51.984;5.646;2024-03-29T05:53:51;10.3;73.1
79301;SHT31;68755;51.984;5.646;2024-03-29T05:56:23;10.2;73.2
79301;SHT31;68755;51.984;5.646;2024-03-29T05:58:53;10.2;73.1
79301;SHT31;68755;51.984;5.646;2024-03-29T06:01:23;10.2;73.4
79301;SHT31;68755;51.984;5.646;2024-03-29T06:03:53;10.2;73.3
79301;SHT31;68755;51.984;5.646;2024-03-29T06:06:26;10.2;73.5
79301;SHT31;68755;51.984;5.646;2024-03-29T06:08:56;10.2;73.7
79301;SHT31;68755;51.984;5.646;2024-03-29T06:11:27;10.2;74.0
79301;SHT31;68755;51.984;5.646;2024-03-29T06:13:57;10.2;74.2
79301;SHT31;68755;51.984;5.646;2024-03-29T06:16:43;10.2;74.0
79301;SHT31;68755;51.984;5.646;2024-03-29T06:19:29;10.2;74.2
79301;SHT31;68755;51.984;5.646;2024-03-29T06:21:58;10.2;74.5
79301;SHT31;68755;51.984;5.646;2024-03-29T06:24:28;10.2;74.5
79301;SHT31;68755;51.984;5.646;2024-03-29T06:26:59;10.2;74.8
79301;SHT31;68755;51.984;5.646;2024-03-29T06:29:28;10.2;74.9
79301;SHT31;68755;51.984;5.646;2024-03-29T06:31:58;10.2;75.2
79301;SHT31;68755;51.984;5.646;2024-03-29T06:34:29;10.2;75.5
79301;SHT31;68755;51.984;5.646;2024-03-29T06:37:00;10.2;75.7
79301;SHT31;68755;51.984;5.646;2024-03-29T06:39:29;10.2;76.0
79301;SHT31;68755;51.984;5.646;2024-03-29T06:41:59;10.2;76.0
79301;SHT31;68755;51.984;5.646;2024-03-29T06:44:29;10.2;76.0
79301;SHT31;68755;51.984;5.646;2024-03-29T06:46:59;10.3;76.0
79301;SHT31;68755;51.984;5.646;2024-03-29T06:49:29;10.3;76.3
79301;SHT31;68755;51.984;5.646;2024-03-29T06:51:59;10.3;76.2
79301;SHT31;68755;51.984;5.646;2024-03-29T06:54:29;10.3;76.1
79301;SHT31;68755;51.984;5.646;2024-03-29T06:57:02;10.3;76.2
79301;SHT31;68755;51.984;5.646;2024-03-29T06:59:33;10.3;76.2
79301;SHT31;68755;51.984;5.646;2024-03-29T07:02:08;10.3;76.2
79301;SHT31;68755;51.984;5.646;2024-03-29T07:04:39;10.3;76.3
79301;SHT31;68755;51.984;5.646;2024-03-29T07:07:09;10.3;76.5
79301;SHT31;68755;51.984;5.646;2024-03-29T07:09:39;10.3;76.4
79301;SHT31;68755;51.984;5.646;2024-03-29T07:12:09;10.3;76.2
79301;SHT31;68755;51.984;5.646;2024-03-29T07:14:39;10.3;76.4
79301;SHT31;68755;51.984;5.646;2024-03-29T07:17:08;10.3;76.7
79301;SHT31;68755;51.984;5.646;2024-03-29T07:19:38;10.3;76.7
79301;SHT31;68755;51.984;5.646;2024-03-29T07:22:07;10.3;76.9
79301;SHT31;68755;51.984;5.646;2024-03-29T07:24:37;10.3;77.2
79301;SHT31;68755;51.984;5.646;2024-03-29T07:27:07;10.3;76.9
79301;SHT31;68755;51.984;5.646;2024-03-29T07:29:39;10.3;77.3
79301;SHT31;68755;51.984;5.646;2024-03-29T07:32:10;10.3;77.3
79301;SHT31;68755;51.984;5.646;2024-03-29T07:34:41;10.3;77.4
79301;SHT31;68755;51.984;5.646;2024-03-29T07:37:11;10.3;77.5
79301;SHT31;68755;51.984;5.646;2024-03-29T07:39:42;10.3;77.3
79301;SHT31;68755;51.984;5.646;2024-03-29T07:42:13;10.3;77.5
79301;SHT31;68755;51.984;5.646;2024-03-29T07:44:45;10.3;77.8
79301;SHT31;68755;51.984;5.646;2024-03-29T07:47:15;10.3;77.9
79301;SHT31;68755;51.984;5.646;2024-03-29T07:49:45;10.3;77.8
79301;SHT31;68755;51.984;5.646;2024-03-29T07:52:15;10.3;77.8
79301;SHT31;68755;51.984;5.646;2024-03-29T07:54:46;10.3;77.6
79301;SHT31;68755;51.984;5.646;2024-03-29T07:57:18;10.3;77.8
79301;SHT31;68755;51.984;5.646;2024-03-29T07:59:50;10.3;78.1
79301;SHT31;68755;51.984;5.646;2024-03-29T08:02:20;10.3;78.3
79301;SHT31;68755;51.984;5.646;2024-03-29T08:04:52;10.4;78.4
79301;SHT31;68755;51.984;5.646;2024-03-29T08:07:21;10.4;78.1
79301;SHT31;68755;51.984;5.646;2024-03-29T08:09:51;10.4;78.2
79301;SHT31;68755;51.984;5.646;2024-03-29T08:12:23;10.4;77.9
79301;SHT31;68755;51.984;5.646;2024-03-29T08:14:52;10.4;77.6
79301;SHT31;68755;51.984;5.646;2024-03-29T08:17:22;10.4;77.3
79301;SHT31;68755;51.984;5.646;2024-03-29T08:19:51;10.4;77.9
79301;SHT31;68755;51.984;5.646;2024-03-29T08:22:21;10.4;77.9
79301;SHT31;68755;51.984;5.646;2024-03-29T08:24:51;10.4;77.9
79301;SHT31;68755;51.984;5.646;2024-03-29T08:27:21;10.5;77.8
79301;SHT31;68755;51.984;5.646;2024-03-29T08:29:50;10.5;78.1
79301;SHT31;68755;51.984;5.646;2024-03-29T08:32:20;10.5;78.2
79301;SHT31;68755;51.984;5.646;2024-03-29T08:34:52;10.5;77.9
79301;SHT31;68755;51.984;5.646;2024-03-29T08:37:21;10.6;77.4
79301;SHT31;68755;51.984;5.646;2024-03-29T08:39:51;10.6;77.7
79301;SHT31;68755;51.984;5.646;2024-03-29T08:42:21;10.6;76.8
79301;SHT31;68755;51.984;5.646;2024-03-29T08:44:51;10.6;77.3
79301;SHT31;68755;51.984;5.646;2024-03-29T08:47:20;10.6;77.6
79301;SHT31;68755;51.984;5.646;2024-03-29T08:49:50;10.6;78.0
79301;SHT31;68755;51.984;5.646;2024-03-29T08:52:20;10.6;77.8
79301;SHT31;68755;51.984;5.646;2024-03-29T08:54:50;10.7;77.9
79301;SHT31;68755;51.984;5.646;2024-03-29T08:57:19;10.7;77.8
79301;SHT31;68755;51.984;5.646;2024-03-29T08:59:52;10.7;78.1
79301;SHT31;68755;51.984;5.646;2024-03-29T09:02:23;10.8;78.6
79301;SHT31;68755;51.984;5.646;2024-03-29T09:04:53;10.8;79.2
79301;SHT31;68755;51.984;5.646;2024-03-29T09:07:23;10.9;80.1
79301;SHT31;68755;51.984;5.646;2024-03-29T09:09:52;11.0;79.8
79301;SHT31;68755;51.984;5.646;2024-03-29T09:12:22;11.0;79.4
79301;SHT31;68755;51.984;5.646;2024-03-29T09:14:51;11.1;77.5
79301;SHT31;68755;51.984;5.646;2024-03-29T09:17:22;11.1;76.8
79301;SHT31;68755;51.984;5.646;2024-03-29T09:19:52;11.2;77.5
79301;SHT31;68755;51.984;5.646;2024-03-29T09:22:25;11.2;76.5
79301;SHT31;68755;51.984;5.646;2024-03-29T09:24:55;11.3;77.3
79301;SHT31;68755;51.984;5.646;2024-03-29T09:27:27;11.3;77.8
79301;SHT31;68755;51.984;5.646;2024-03-29T09:30:02;11.4;77.8
79301;SHT31;68755;51.984;5.646;2024-03-29T09:32:34;11.4;77.9
79301;SHT31;68755;51.984;5.646;2024-03-29T09:35:04;11.5;77.7
79301;SHT31;68755;51.984;5.646;2024-03-29T09:37:33;11.6;78.5
79301;SHT31;68755;51.984;5.646;2024-03-29T09:40:05;11.6;78.7
79301;SHT31;68755;51.984;5.646;2024-03-29T09:42:39;11.7;77.9
79301;SHT31;68755;51.984;5.646;2024-03-29T09:45:11;11.8;76.6
79301;SHT31;68755;51.984;5.646;2024-03-29T09:47:45;11.9;76.5
79301;SHT31;68755;51.984;5.646;2024-03-29T09:50:20;11.9;73.5
79301;SHT31;68755;51.984;5.646;2024-03-29T09:52:53;12.0;73.8
79301;SHT31;68755;51.984;5.646;2024-03-29T09:55:25;12.1;74.0
79301;SHT31;68755;51.984;5.646;2024-03-29T09:57:57;12.1;75.1
79301;SHT31;68755;51.984;5.646;2024-03-29T10:00:28;12.2;74.5
79301;SHT31;68755;51.984;5.646;2024-03-29T10:03:00;12.3;73.4
79301;SHT31;68755;51.984;5.646;2024-03-29T10:05:31;12.3;72.9
79301;SHT31;68755;51.984;5.646;2024-03-29T10:08:08;12.4;72.2
79301;SHT31;68755;51.984;5.646;2024-03-29T10:10:41;12.4;71.7
79301;SHT31;68755;51.984;5.646;2024-03-29T10:13:11;12.4;72.3
79301;SHT31;68755;51.984;5.646;2024-03-29T10:15:41;12.4;72.6
79301;SHT31;68755;51.984;5.646;2024-03-29T10:18:17;12.5;72.2
79301;SHT31;68755;51.984;5.646;2024-03-29T10:20:47;12.5;72.7
79301;SHT31;68755;51.984;5.646;2024-03-29T10:23:24;12.5;73.1
79301;SHT31;68755;51.984;5.646;2024-03-29T10:25:53;12.5;74.4
79301;SHT31;68755;51.984;5.646;2024-03-29T10:28:24;12.6;74.1
79301;SHT31;68755;51.984;5.646;2024-03-29T10:30:55;12.6;71.9
79301;SHT31;68755;51.984;5.646;2024-03-29T10:33:27;12.6;72.0
79301;SHT31;68755;51.984;5.646;2024-03-29T10:35:59;12.6;70.9
79301;SHT31;68755;51.984;5.646;2024-03-29T10:38:32;12.6;70.4
79301;SHT31;68755;51.984;5.646;2024-03-29T10:41:03;12.6;70.9
79301;SHT31;68755;51.984;5.646;2024-03-29T10:43:39;12.6;71.9
79301;SHT31;68755;51.984;5.646;2024-03-29T10:46:13;12.6;72.7
79301;SHT31;68755;51.984;5.646;2024-03-29T10:48:49;12.7;72.9
79301;SHT31;68755;51.984;5.646;2024-03-29T10:51:20;12.7;72.4
79301;SHT31;68755;51.984;5.646;2024-03-29T10:53:51;12.7;71.6
79301;SHT31;68755;51.984;5.646;2024-03-29T10:56:26;12.8;71.1
79301;SHT31;68755;51.984;5.646;2024-03-29T10:59:15;12.8;70.4
79301;SHT31;68755;51.984;5.646;2024-03-29T11:01:45;12.8;70.7
79301;SHT31;68755;51.984;5.646;2024-03-29T11:04:22;12.9;71.1
79301;SHT31;68755;51.984;5.646;2024-03-29T11:06:57;12.9;70.8
79301;SHT31;68755;51.984;5.646;2024-03-29T11:09:31;13.0;72.7
79301;SHT31;68755;51.984;5.646;2024-03-29T11:12:04;13.1;71.9
79301;SHT31;68755;51.984;5.646;2024-03-29T11:14:42;13.1;71.4
79301;SHT31;68755;51.984;5.646;2024-03-29T11:17:14;13.2;70.5
79301;SHT31;68755;51.984;5.646;2024-03-29T11:19:44;13.3;69.0
79301;SHT31;68755;51.984;5.646;2024-03-29T11:22:14;13.3;68.5
79301;SHT31;68755;51.984;5.646;2024-03-29T11:24:43;13.3;68.9
79301;SHT31;68755;51.984;5.646;2024-03-29T11:27:13;13.4;68.5
79301;SHT31;68755;51.984;5.646;2024-03-29T11:29:45;13.4;68.8
79301;SHT31;68755;51.984;5.646;2024-03-29T11:32:36;13.4;68.9
79301;SHT31;68755;51.984;5.646;2024-03-29T11:35:16;13.5;67.4
79301;SHT31;68755;51.984;5.646;2024-03-29T11:37:57;13.6;67.1
79301;SHT31;68755;51.984;5.646;2024-03-29T11:40:31;13.7;67.0
79301;SHT31;68755;51.984;5.646;2024-03-29T11:43:01;13.7;66.6
79301;SHT31;68755;51.984;5.646;2024-03-29T11:45:32;13.8;66.3
79301;SHT31;68755;51.984;5.646;2024-03-29T11:48:09;13.8;66.3
79301;SHT31;68755;51.984;5.646;2024-03-29T11:50:43;13.8;66.3
79301;SHT31;68755;51.984;5.646;2024-03-29T11:53:13;13.9;66.7
79301;SHT31;68755;51.984;5.646;2024-03-29T11:55:42;13.9;67.2
79301;SHT31;68755;51.984;5.646;2024-03-29T11:58:12;14.0;66.2
79301;SHT31;68755;51.984;5.646;2024-03-29T12:00:42;14.0;66.4
79301;SHT31;68755;51.984;5.646;2024-03-29T12:03:14;14.1;66.9
79301;SHT31;68755;51.984;5.646;2024-03-29T12:05:49;14.1;65.5
79301;SHT31;68755;51.984;5.646;2024-03-29T12:08:22;14.1;66.6
79301;SHT31;68755;51.984;5.646;2024-03-29T12:10:52;14.2;65.0
79301;SHT31;68755;51.984;5.646;2024-03-29T12:13:21;14.2;64.1
79301;SHT31;68755;51.984;5.646;2024-03-29T12:15:51;14.2;64.6
79301;SHT31;68755;51.984;5.646;2024-03-29T12:18:22;14.3;64.3
79301;SHT31;68755;51.984;5.646;2024-03-29T12:20:52;14.3;65.1
79301;SHT31;68755;51.984;5.646;2024-03-29T12:23:22;14.3;65.6
79301;SHT31;68755;51.984;5.646;2024-03-29T12:25:56;14.3;65.8
79301;SHT31;68755;51.984;5.646;2024-03-29T12:28:27;14.4;65.8
79301;SHT31;68755;51.984;5.646;2024-03-29T12:31:01;14.4;65.4
79301;SHT31;68755;51.984;5.646;2024-03-29T12:33:31;14.4;63.8
79301;SHT31;68755;51.984;5.646;2024-03-29T12:36:03;14.5;63.6
79301;SHT31;68755;51.984;5.646;2024-03-29T12:38:34;14.5;63.1
79301;SHT31;68755;51.984;5.646;2024-03-29T12:41:06;14.5;62.5
79301;SHT31;68755;51.984;5.646;2024-03-29T12:43:36;14.5;62.3
79301;SHT31;68755;51.984;5.646;2024-03-29T12:46:05;14.6;63.5
79301;SHT31;68755;51.984;5.646;2024-03-29T12:48:35;14.6;62.9
79301;SHT31;68755;51.984;5.646;2024-03-29T12:51:07;14.7;62.0
79301;SHT31;68755;51.984;5.646;2024-03-29T12:53:39;14.7;62.2
79301;SHT31;68755;51.984;5.646;2024-03-29T12:56:10;14.7;61.8
79301;SHT31;68755;51.984;5.646;2024-03-29T12:58:41;14.8;61.5
79301;SHT31;68755;51.984;5.646;2024-03-29T13:01:10;14.8;61.3
79301;SHT31;68755;51.984;5.646;2024-03-29T13:03:40;14.8;62.2
79301;SHT31;68755;51.984;5.646;2024-03-29T13:06:12;14.9;61.8
79301;SHT31;68755;51.984;5.646;2024-03-29T13:08:42;14.9;61.8
79301;SHT31;68755;51.984;5.646;2024-03-29T13:11:11;14.9;60.4
79301;SHT31;68755;51.984;5.646;2024-03-29T13:13:42;15.0;60.3
79301;SHT31;68755;51.984;5.646;2024-03-29T13:16:12;15.0;61.0
79301;SHT31;68755;51.984;5.646;2024-03-29T13:18:42;15.0;61.1
79301;SHT31;68755;51.984;5.646;2024-03-29T13:21:11;15.1;61.8
79301;SHT31;68755;51.984;5.646;2024-03-29T13:23:41;15.1;59.1
79301;SHT31;68755;51.984;5.646;2024-03-29T13:26:13;15.1;58.8
79301;SHT31;68755;51.984;5.646;2024-03-29T13:28:43;15.1;59.5
79301;SHT31;68755;51.984;5.646;2024-03-29T13:31:12;15.2;59.0
79301;SHT31;68755;51.984;5.646;2024-03-29T13:33:42;15.2;59.6
79301;SHT31;68755;51.984;5.646;2024-03-29T13:36:14;15.2;60.3
79301;SHT31;68755;51.984;5.646;2024-03-29T13:38:44;15.2;61.0
79301;SHT31;68755;51.984;5.646;2024-03-29T13:41:14;15.3;58.8
79301;SHT31;68755;51.984;5.646;2024-03-29T13:43:46;15.3;58.9
79301;SHT31;68755;51.984;5.646;2024-03-29T13:46:19;15.3;59.1
79301;SHT31;68755;51.984;5.646;2024-03-29T13:48:48;15.3;58.6
79301;SHT31;68755;51.984;5.646;2024-03-29T13:51:18;15.4;58.8
79301;SHT31;68755;51.984;5.646;2024-03-29T13:53:47;15.4;59.4
79301;SHT31;68755;51.984;5.646;2024-03-29T13:56:17;15.4;58.7
79301;SHT31;68755;51.984;5.646;2024-03-29T13:58:49;15.5;59.4
79301;SHT31;68755;51.984;5.646;2024-03-29T14:01:19;15.5;58.3
79301;SHT31;68755;51.984;5.646;2024-03-29T14:03:50;15.5;57.9
79301;SHT31;68755;51.984;5.646;2024-03-29T14:06:21;15.5;57.8
79301;SHT31;68755;51.984;5.646;2024-03-29T14:08:51;15.6;57.1
79301;SHT31;68755;51.984;5.646;2024-03-29T14:11:20;15.6;57.2
79301;SHT31;68755;51.984;5.646;2024-03-29T14:13:50;15.6;56.9
79301;SHT31;68755;51.984;5.646;2024-03-29T14:16:23;15.6;56.6
79301;SHT31;68755;51.984;5.646;2024-03-29T14:18:53;15.6;56.3
79301;SHT31;68755;51.984;5.646;2024-03-29T14:21:23;15.6;56.2
79301;SHT31;68755;51.984;5.646;2024-03-29T14:23:53;15.7;56.3
79301;SHT31;68755;51.984;5.646;2024-03-29T14:26:22;15.7;56.0
79301;SHT31;68755;51.984;5.646;2024-03-29T14:28:52;15.7;56.4
79301;SHT31;68755;51.984;5.646;2024-03-29T14:31:23;15.7;57.3
79301;SHT31;68755;51.984;5.646;2024-03-29T14:33:53;15.7;57.4
79301;SHT31;68755;51.984;5.646;2024-03-29T14:36:25;15.7;56.1
79301;SHT31;68755;51.984;5.646;2024-03-29T14:38:55;15.7;56.4
79301;SHT31;68755;51.984;5.646;2024-03-29T14:41:24;15.7;56.3
79301;SHT31;68755;51.984;5.646;2024-03-29T14:43:54;15.7;56.6
79301;SHT31;68755;51.984;5.646;2024-03-29T14:46:25;15.7;56.2
79301;SHT31;68755;51.984;5.646;2024-03-29T14:48:55;15.7;56.7
79301;SHT31;68755;51.984;5.646;2024-03-29T14:51:24;15.8;56.6
79301;SHT31;68755;51.984;5.646;2024-03-29T14:53:55;15.8;56.4
79301;SHT31;68755;51.984;5.646;2024-03-29T14:56:25;15.7;56.9
79301;SHT31;68755;51.984;5.646;2024-03-29T14:58:59;15.7;56.8
79301;SHT31;68755;51.984;5.646;2024-03-29T15:01:29;15.7;56.7
79301;SHT31;68755;51.984;5.646;2024-03-29T15:03:59;15.7;56.7
79301;SHT31;68755;51.984;5.646;2024-03-29T15:06:30;15.7;56.4
79301;SHT31;68755;51.984;5.646;2024-03-29T15:09:00;15.7;56.6
79301;SHT31;68755;51.984;5.646;2024-03-29T15:11:31;15.7;56.2
79301;SHT31;68755;51.984;5.646;2024-03-29T15:14:04;15.7;56.2
79301;SHT31;68755;51.984;5.646;2024-03-29T15:16:36;15.7;56.5
79301;SHT31;68755;51.984;5.646;2024-03-29T15:19:06;15.7;56.7
79301;SHT31;68755;51.984;5.646;2024-03-29T15:21:36;15.7;56.4
79301;SHT31;68755;51.984;5.646;2024-03-29T15:24:07;15.7;55.9
79301;SHT31;68755;51.984;5.646;2024-03-29T15:26:37;15.7;55.6
79301;SHT31;68755;51.984;5.646;2024-03-29T15:29:09;15.7;56.4
79301;SHT31;68755;51.984;5.646;2024-03-29T15:31:40;15.7;56.7
79301;SHT31;68755;51.984;5.646;2024-03-29T15:34:11;15.7;56.9
79301;SHT31;68755;51.984;5.646;2024-03-29T15:36:40;15.6;57.0
79301;SHT31;68755;51.984;5.646;2024-03-29T15:39:11;15.6;56.7
79301;SHT31;68755;51.984;5.646;2024-03-29T15:41:47;15.6;56.5
79301;SHT31;68755;51.984;5.646;2024-03-29T15:44:17;15.6;56.0
79301;SHT31;68755;51.984;5.646;2024-03-29T15:46:48;15.6;55.5
79301;SHT31;68755;51.984;5.646;2024-03-29T15:49:19;15.6;55.4
79301;SHT31;68755;51.984;5.646;2024-03-29T15:51:51;15.5;55.9
79301;SHT31;68755;51.984;5.646;2024-03-29T15:54:21;15.5;56.5
79301;SHT31;68755;51.984;5.646;2024-03-29T15:56:51;15.5;56.8
79301;SHT31;68755;51.984;5.646;2024-03-29T15:59:25;15.5;56.6
79301;SHT31;68755;51.984;5.646;2024-03-29T16:01:55;15.5;56.5
79301;SHT31;68755;51.984;5.646;2024-03-29T16:04:27;15.5;56.6
79301;SHT31;68755;51.984;5.646;2024-03-29T16:06:56;15.5;56.8
79301;SHT31;68755;51.984;5.646;2024-03-29T16:09:29;15.5;57.2
79301;SHT31;68755;51.984;5.646;2024-03-29T16:11:59;15.5;56.3
79301;SHT31;68755;51.984;5.646;2024-03-29T16:14:29;15.5;55.8
79301;SHT31;68755;51.984;5.646;2024-03-29T16:16:59;15.5;55.8
79301;SHT31;68755;51.984;5.646;2024-03-29T16:19:28;15.5;54.9
79301;SHT31;68755;51.984;5.646;2024-03-29T16:21:59;15.5;54.1
79301;SHT31;68755;51.984;5.646;2024-03-29T16:24:31;15.5;55.1
79301;SHT31;68755;51.984;5.646;2024-03-29T16:27:00;15.5;54.2